sensor_id;sensor_type;location;lat;lon;timestamp;P1;durP1;ratioP1;P2;durP2;ratioP2
21833;SDS011;11079;51.092;3.458;2022-08-19T00:00:00;36.03;;;22.77;;
21833;SDS011;11079;51.092;3.458;2022-08-19T00:02:28;32.60;;;22.63;;
21833;SDS011;11079;51.092;3.458;2022-08-19T00:04:55;32.33;;;23.20;;
21833;SDS011;11079;51.092;3.458;2022-08-19T00:07:20;36.08;;;23.85;;
21833;SDS011;11079;51.092;3.458;2022-08-19T00:09:46;33.40;;;24.58;;
21833;SDS011;11079;51.092;3.458;2022-08-19T00:12:12;36.92;;;24.00;;
21833;SDS011;11079;51.092;3.458;2022-08-19T00:14:38;34.38;;;24.85;;
21833;SDS011;11079;51.092;3.458;2022-08-19T00:17:06;38.33;;;23.92;;
21833;SDS011;11079;51.092;3.458;2022-08-19T00:19:33;36.90;;;24.13;;
21833;SDS011;11079;51.092;3.458;2022-08-19T00:22:01;36.40;;;23.35;;
21833;SDS011;11079;51.092;3.458;2022-08-19T00:24:27;33.47;;;23.17;;
21833;SDS011;11079;51.092;3.458;2022-08-19T00:26:54;33.72;;;23.55;;
21833;SDS011;11079;51.092;3.458;2022-08-19T00:29:21;36.95;;;24.15;;
21833;SDS011;11079;51.092;3.458;2022-08-19T00:31:48;40.15;;;24.88;;
21833;SDS011;11079;51.092;3.458;2022-08-19T00:34:17;37.03;;;24.25;;
21833;SDS011;11079;51.092;3.458;2022-08-19T00:36:43;34.92;;;24.55;;
21833;SDS011;11079;51.092;3.458;2022-08-19T00:39:10;33.05;;;22.88;;
21833;SDS011;11079;51.092;3.458;2022-08-19T00:41:37;39.33;;;24.05;;
21833;SDS011;11079;51.092;3.458;2022-08-19T00:44:08;35.92;;;22.70;;
21833;SDS011;11079;51.092;3.458;2022-08-19T00:46:42;36.50;;;23.05;;
21833;SDS011;11079;51.092;3.458;2022-08-19T00:49:11;35.85;;;23.65;;
21833;SDS011;11079;51.092;3.458;2022-08-19T00:52:09;34.67;;;23.15;;
21833;SDS011;11079;51.092;3.458;2022-08-19T00:54:38;36.30;;;22.70;;
21833;SDS011;11079;51.092;3.458;2022-08-19T00:57:07;35.95;;;22.77;;
21833;SDS011;11079;51.092;3.458;2022-08-19T00:59:35;36.45;;;22.73;;
21833;SDS011;11079;51.092;3.458;2022-08-19T01:02:03;32.83;;;23.35;;
21833;SDS011;11079;51.092;3.458;2022-08-19T01:04:29;36.15;;;23.35;;
21833;SDS011;11079;51.092;3.458;2022-08-19T01:06:55;35.60;;;23.83;;
21833;SDS011;11079;51.092;3.458;2022-08-19T01:09:22;37.55;;;23.17;;
21833;SDS011;11079;51.092;3.458;2022-08-19T01:11:48;40.85;;;24.45;;
21833;SDS011;11079;51.092;3.458;2022-08-19T01:14:14;39.58;;;24.17;;
21833;SDS011;11079;51.092;3.458;2022-08-19T01:16:41;36.78;;;23.27;;
21833;SDS011;11079;51.092;3.458;2022-08-19T01:19:27;41.30;;;24.10;;
21833;SDS011;11079;51.092;3.458;2022-08-19T01:22:01;39.08;;;24.55;;
21833;SDS011;11079;51.092;3.458;2022-08-19T01:24:30;41.45;;;24.58;;
21833;SDS011;11079;51.092;3.458;2022-08-19T01:26:57;38.90;;;24.60;;
21833;SDS011;11079;51.092;3.458;2022-08-19T01:29:23;38.63;;;24.20;;
21833;SDS011;11079;51.092;3.458;2022-08-19T01:31:48;41.35;;;24.10;;
21833;SDS011;11079;51.092;3.458;2022-08-19T01:34:17;38.95;;;24.15;;
21833;SDS011;11079;51.092;3.458;2022-08-19T01:36:44;37.42;;;24.73;;
21833;SDS011;11079;51.092;3.458;2022-08-19T01:39:13;39.33;;;25.13;;
21833;SDS011;11079;51.092;3.458;2022-08-19T01:41:41;39.55;;;25.00;;
21833;SDS011;11079;51.092;3.458;2022-08-19T01:44:07;42.72;;;25.42;;
21833;SDS011;11079;51.092;3.458;2022-08-19T01:46:34;45.08;;;26.05;;
21833;SDS011;11079;51.092;3.458;2022-08-19T01:49:01;48.60;;;26.60;;
21833;SDS011;11079;51.092;3.458;2022-08-19T01:51:28;42.13;;;24.88;;
21833;SDS011;11079;51.092;3.458;2022-08-19T01:53:55;42.75;;;26.65;;
21833;SDS011;11079;51.092;3.458;2022-08-19T01:56:21;40.72;;;25.58;;
21833;SDS011;11079;51.092;3.458;2022-08-19T01:58:55;38.42;;;24.63;;
21833;SDS011;11079;51.092;3.458;2022-08-19T02:01:26;40.92;;;25.02;;
21833;SDS011;11079;51.092;3.458;2022-08-19T02:03:51;44.38;;;24.33;;
21833;SDS011;11079;51.092;3.458;2022-08-19T02:06:18;44.55;;;25.13;;
21833;SDS011;11079;51.092;3.458;2022-08-19T02:08:44;39.38;;;24.92;;
21833;SDS011;11079;51.092;3.458;2022-08-19T02:11:17;46.22;;;26.73;;
21833;SDS011;11079;51.092;3.458;2022-08-19T02:13:45;44.70;;;24.95;;
21833;SDS011;11079;51.092;3.458;2022-08-19T02:16:11;43.00;;;26.58;;
21833;SDS011;11079;51.092;3.458;2022-08-19T02:18:37;41.50;;;25.70;;
21833;SDS011;11079;51.092;3.458;2022-08-19T02:21:02;44.72;;;26.70;;
21833;SDS011;11079;51.092;3.458;2022-08-19T02:23:28;46.13;;;26.00;;
21833;SDS011;11079;51.092;3.458;2022-08-19T02:25:54;43.85;;;25.50;;
21833;SDS011;11079;51.092;3.458;2022-08-19T02:28:20;46.40;;;26.67;;
21833;SDS011;11079;51.092;3.458;2022-08-19T02:30:46;39.75;;;25.98;;
21833;SDS011;11079;51.092;3.458;2022-08-19T02:33:12;51.90;;;27.35;;
21833;SDS011;11079;51.092;3.458;2022-08-19T02:35:40;47.58;;;26.90;;
21833;SDS011;11079;51.092;3.458;2022-08-19T02:38:08;44.92;;;25.38;;
21833;SDS011;11079;51.092;3.458;2022-08-19T02:40:57;43.28;;;26.20;;
21833;SDS011;11079;51.092;3.458;2022-08-19T02:43:25;40.60;;;25.55;;
21833;SDS011;11079;51.092;3.458;2022-08-19T02:45:52;43.08;;;25.63;;
21833;SDS011;11079;51.092;3.458;2022-08-19T02:48:18;51.30;;;26.67;;
21833;SDS011;11079;51.092;3.458;2022-08-19T02:50:45;45.10;;;24.85;;
21833;SDS011;11079;51.092;3.458;2022-08-19T02:53:13;43.65;;;24.13;;
21833;SDS011;11079;51.092;3.458;2022-08-19T02:55:45;40.58;;;25.77;;
21833;SDS011;11079;51.092;3.458;2022-08-19T02:58:12;33.38;;;22.30;;
21833;SDS011;11079;51.092;3.458;2022-08-19T03:00:43;36.70;;;23.05;;
21833;SDS011;11079;51.092;3.458;2022-08-19T03:03:10;40.17;;;23.48;;
21833;SDS011;11079;51.092;3.458;2022-08-19T03:05:37;37.22;;;23.33;;
21833;SDS011;11079;51.092;3.458;2022-08-19T03:08:02;36.13;;;22.27;;
21833;SDS011;11079;51.092;3.458;2022-08-19T03:10:29;36.92;;;21.42;;
21833;SDS011;11079;51.092;3.458;2022-08-19T03:12:54;37.88;;;22.38;;
21833;SDS011;11079;51.092;3.458;2022-08-19T03:15:20;32.45;;;22.13;;
21833;SDS011;11079;51.092;3.458;2022-08-19T03:17:45;34.90;;;20.65;;
21833;SDS011;11079;51.092;3.458;2022-08-19T03:20:11;36.15;;;21.45;;
21833;SDS011;11079;51.092;3.458;2022-08-19T03:22:37;35.88;;;22.00;;
21833;SDS011;11079;51.092;3.458;2022-08-19T03:25:02;32.70;;;20.40;;
21833;SDS011;11079;51.092;3.458;2022-08-19T03:27:28;34.15;;;20.83;;
21833;SDS011;11079;51.092;3.458;2022-08-19T03:29:54;34.65;;;20.83;;
21833;SDS011;11079;51.092;3.458;2022-08-19T03:32:20;40.15;;;21.58;;
21833;SDS011;11079;51.092;3.458;2022-08-19T03:34:47;35.55;;;20.88;;
21833;SDS011;11079;51.092;3.458;2022-08-19T03:37:13;35.28;;;20.95;;
21833;SDS011;11079;51.092;3.458;2022-08-19T03:39:39;38.95;;;20.90;;
21833;SDS011;11079;51.092;3.458;2022-08-19T03:42:07;33.80;;;20.58;;
21833;SDS011;11079;51.092;3.458;2022-08-19T03:44:33;32.90;;;20.05;;
21833;SDS011;11079;51.092;3.458;2022-08-19T03:47:01;31.80;;;19.50;;
21833;SDS011;11079;51.092;3.458;2022-08-19T03:49:27;32.47;;;19.60;;
21833;SDS011;11079;51.092;3.458;2022-08-19T03:51:55;29.33;;;18.23;;
21833;SDS011;11079;51.092;3.458;2022-08-19T03:54:23;33.05;;;19.50;;
21833;SDS011;11079;51.092;3.458;2022-08-19T03:56:50;37.47;;;20.08;;
21833;SDS011;11079;51.092;3.458;2022-08-19T03:59:19;34.08;;;19.40;;
21833;SDS011;11079;51.092;3.458;2022-08-19T04:01:56;35.15;;;20.20;;
21833;SDS011;11079;51.092;3.458;2022-08-19T04:04:24;33.88;;;20.92;;
21833;SDS011;11079;51.092;3.458;2022-08-19T04:06:50;31.38;;;19.45;;
21833;SDS011;11079;51.092;3.458;2022-08-19T04:09:17;34.60;;;19.88;;
21833;SDS011;11079;51.092;3.458;2022-08-19T04:11:45;33.28;;;19.27;;
21833;SDS011;11079;51.092;3.458;2022-08-19T04:14:14;40.08;;;22.40;;
21833;SDS011;11079;51.092;3.458;2022-08-19T04:16:44;37.10;;;20.17;;
21833;SDS011;11079;51.092;3.458;2022-08-19T04:19:12;38.25;;;20.23;;
21833;SDS011;11079;51.092;3.458;2022-08-19T04:21:39;39.85;;;20.05;;
21833;SDS011;11079;51.092;3.458;2022-08-19T04:24:04;34.67;;;20.38;;
21833;SDS011;11079;51.092;3.458;2022-08-19T04:26:32;37.95;;;20.30;;
21833;SDS011;11079;51.092;3.458;2022-08-19T04:29:00;36.92;;;19.52;;
21833;SDS011;11079;51.092;3.458;2022-08-19T04:31:30;32.78;;;19.98;;
21833;SDS011;11079;51.092;3.458;2022-08-19T04:34:00;34.75;;;21.27;;
21833;SDS011;11079;51.092;3.458;2022-08-19T04:36:30;31.83;;;19.40;;
21833;SDS011;11079;51.092;3.458;2022-08-19T04:38:58;34.45;;;20.48;;
21833;SDS011;11079;51.092;3.458;2022-08-19T04:41:27;29.30;;;18.98;;
21833;SDS011;11079;51.092;3.458;2022-08-19T04:44:11;30.33;;;19.05;;
21833;SDS011;11079;51.092;3.458;2022-08-19T04:46:38;32.97;;;20.27;;
21833;SDS011;11079;51.092;3.458;2022-08-19T04:49:04;31.20;;;19.73;;
21833;SDS011;11079;51.092;3.458;2022-08-19T04:51:31;33.78;;;19.88;;
21833;SDS011;11079;51.092;3.458;2022-08-19T04:53:58;32.92;;;19.95;;
21833;SDS011;11079;51.092;3.458;2022-08-19T04:56:25;31.98;;;18.38;;
21833;SDS011;11079;51.092;3.458;2022-08-19T04:58:52;33.25;;;19.60;;
21833;SDS011;11079;51.092;3.458;2022-08-19T05:01:26;33.50;;;19.33;;
21833;SDS011;11079;51.092;3.458;2022-08-19T05:03:53;39.10;;;20.33;;
21833;SDS011;11079;51.092;3.458;2022-08-19T05:06:21;31.15;;;19.17;;
21833;SDS011;11079;51.092;3.458;2022-08-19T05:08:48;34.40;;;18.55;;
21833;SDS011;11079;51.092;3.458;2022-08-19T05:11:16;34.28;;;18.83;;
21833;SDS011;11079;51.092;3.458;2022-08-19T05:13:43;32.10;;;18.30;;
21833;SDS011;11079;51.092;3.458;2022-08-19T05:16:10;32.33;;;18.08;;
21833;SDS011;11079;51.092;3.458;2022-08-19T05:18:37;38.25;;;19.73;;
21833;SDS011;11079;51.092;3.458;2022-08-19T05:21:22;28.90;;;17.85;;
21833;SDS011;11079;51.092;3.458;2022-08-19T05:24:07;26.90;;;17.15;;
21833;SDS011;11079;51.092;3.458;2022-08-19T05:26:34;29.40;;;17.48;;
21833;SDS011;11079;51.092;3.458;2022-08-19T05:29:03;32.53;;;16.98;;
21833;SDS011;11079;51.092;3.458;2022-08-19T05:31:30;33.70;;;17.27;;
21833;SDS011;11079;51.092;3.458;2022-08-19T05:33:56;26.80;;;17.00;;
21833;SDS011;11079;51.092;3.458;2022-08-19T05:36:23;29.42;;;16.27;;
21833;SDS011;11079;51.092;3.458;2022-08-19T05:38:50;31.50;;;16.33;;
21833;SDS011;11079;51.092;3.458;2022-08-19T05:41:17;25.25;;;15.40;;
21833;SDS011;11079;51.092;3.458;2022-08-19T05:43:44;28.00;;;16.08;;
21833;SDS011;11079;51.092;3.458;2022-08-19T05:46:13;22.88;;;15.25;;
21833;SDS011;11079;51.092;3.458;2022-08-19T05:48:44;27.85;;;15.32;;
21833;SDS011;11079;51.092;3.458;2022-08-19T05:51:11;25.25;;;15.57;;
21833;SDS011;11079;51.092;3.458;2022-08-19T05:53:37;27.52;;;15.27;;
21833;SDS011;11079;51.092;3.458;2022-08-19T05:56:05;24.55;;;14.48;;
21833;SDS011;11079;51.092;3.458;2022-08-19T05:58:36;26.15;;;14.38;;
21833;SDS011;11079;51.092;3.458;2022-08-19T06:01:03;21.45;;;14.10;;
21833;SDS011;11079;51.092;3.458;2022-08-19T06:03:31;23.45;;;13.30;;
21833;SDS011;11079;51.092;3.458;2022-08-19T06:05:58;22.20;;;13.63;;
21833;SDS011;11079;51.092;3.458;2022-08-19T06:08:24;23.92;;;13.52;;
21833;SDS011;11079;51.092;3.458;2022-08-19T06:10:54;19.02;;;12.15;;
21833;SDS011;11079;51.092;3.458;2022-08-19T06:13:20;27.02;;;12.90;;
21833;SDS011;11079;51.092;3.458;2022-08-19T06:15:48;19.08;;;10.82;;
21833;SDS011;11079;51.092;3.458;2022-08-19T06:18:13;19.63;;;10.85;;
21833;SDS011;11079;51.092;3.458;2022-08-19T06:20:40;20.27;;;11.82;;
21833;SDS011;11079;51.092;3.458;2022-08-19T06:23:07;21.40;;;10.93;;
21833;SDS011;11079;51.092;3.458;2022-08-19T06:25:33;24.75;;;11.95;;
21833;SDS011;11079;51.092;3.458;2022-08-19T06:27:59;19.45;;;12.45;;
21833;SDS011;11079;51.092;3.458;2022-08-19T06:30:25;18.17;;;11.07;;
21833;SDS011;11079;51.092;3.458;2022-08-19T06:32:51;16.95;;;11.07;;
21833;SDS011;11079;51.092;3.458;2022-08-19T06:35:17;18.17;;;11.15;;
21833;SDS011;11079;51.092;3.458;2022-08-19T06:37:42;16.35;;;11.52;;
21833;SDS011;11079;51.092;3.458;2022-08-19T06:40:09;21.15;;;11.10;;
21833;SDS011;11079;51.092;3.458;2022-08-19T06:42:37;16.52;;;10.85;;
21833;SDS011;11079;51.092;3.458;2022-08-19T06:45:03;21.02;;;12.13;;
21833;SDS011;11079;51.092;3.458;2022-08-19T06:47:30;23.20;;;11.57;;
21833;SDS011;11079;51.092;3.458;2022-08-19T06:49:57;18.05;;;11.38;;
21833;SDS011;11079;51.092;3.458;2022-08-19T06:52:26;17.55;;;10.45;;
21833;SDS011;11079;51.092;3.458;2022-08-19T06:54:52;16.13;;;10.55;;
21833;SDS011;11079;51.092;3.458;2022-08-19T06:57:19;15.30;;;10.82;;
21833;SDS011;11079;51.092;3.458;2022-08-19T06:59:44;16.95;;;9.38;;
21833;SDS011;11079;51.092;3.458;2022-08-19T07:02:10;17.42;;;10.27;;
21833;SDS011;11079;51.092;3.458;2022-08-19T07:04:37;17.65;;;10.32;;
21833;SDS011;11079;51.092;3.458;2022-08-19T07:07:07;16.00;;;9.98;;
21833;SDS011;11079;51.092;3.458;2022-08-19T07:09:37;12.32;;;8.68;;
21833;SDS011;11079;51.092;3.458;2022-08-19T07:12:05;15.48;;;8.23;;
21833;SDS011;11079;51.092;3.458;2022-08-19T07:14:33;12.95;;;8.90;;
21833;SDS011;11079;51.092;3.458;2022-08-19T07:17:02;17.75;;;7.90;;
21833;SDS011;11079;51.092;3.458;2022-08-19T07:19:30;12.23;;;7.15;;
21833;SDS011;11079;51.092;3.458;2022-08-19T07:21:56;12.95;;;7.53;;
21833;SDS011;11079;51.092;3.458;2022-08-19T07:24:23;11.00;;;6.45;;
21833;SDS011;11079;51.092;3.458;2022-08-19T07:26:51;11.02;;;6.50;;
21833;SDS011;11079;51.092;3.458;2022-08-19T07:29:19;13.32;;;7.65;;
21833;SDS011;11079;51.092;3.458;2022-08-19T07:31:47;14.85;;;7.72;;
21833;SDS011;11079;51.092;3.458;2022-08-19T07:34:16;16.10;;;8.38;;
21833;SDS011;11079;51.092;3.458;2022-08-19T07:36:43;12.23;;;7.20;;
21833;SDS011;11079;51.092;3.458;2022-08-19T07:39:14;14.82;;;6.72;;
21833;SDS011;11079;51.092;3.458;2022-08-19T07:41:43;11.82;;;6.57;;
21833;SDS011;11079;51.092;3.458;2022-08-19T07:44:09;10.50;;;6.53;;
21833;SDS011;11079;51.092;3.458;2022-08-19T07:46:36;10.75;;;6.57;;
21833;SDS011;11079;51.092;3.458;2022-08-19T07:49:07;12.93;;;6.22;;
21833;SDS011;11079;51.092;3.458;2022-08-19T07:51:43;10.73;;;6.00;;
21833;SDS011;11079;51.092;3.458;2022-08-19T07:54:14;11.52;;;5.72;;
21833;SDS011;11079;51.092;3.458;2022-08-19T07:56:41;10.73;;;5.57;;
21833;SDS011;11079;51.092;3.458;2022-08-19T07:59:07;9.38;;;5.63;;
21833;SDS011;11079;51.092;3.458;2022-08-19T08:01:34;6.82;;;5.03;;
21833;SDS011;11079;51.092;3.458;2022-08-19T08:04:00;8.25;;;4.43;;
21833;SDS011;11079;51.092;3.458;2022-08-19T08:06:45;9.60;;;4.82;;
21833;SDS011;11079;51.092;3.458;2022-08-19T08:09:30;9.20;;;4.93;;
21833;SDS011;11079;51.092;3.458;2022-08-19T08:12:00;8.07;;;5.13;;
21833;SDS011;11079;51.092;3.458;2022-08-19T08:14:36;7.65;;;4.75;;
21833;SDS011;11079;51.092;3.458;2022-08-19T08:17:06;8.48;;;5.03;;
21833;SDS011;11079;51.092;3.458;2022-08-19T08:19:33;8.57;;;4.45;;
21833;SDS011;11079;51.092;3.458;2022-08-19T08:22:00;7.93;;;4.63;;
21833;SDS011;11079;51.092;3.458;2022-08-19T08:24:27;9.05;;;4.90;;
21833;SDS011;11079;51.092;3.458;2022-08-19T08:26:55;9.18;;;5.22;;
21833;SDS011;11079;51.092;3.458;2022-08-19T08:29:24;7.78;;;4.47;;
21833;SDS011;11079;51.092;3.458;2022-08-19T08:31:52;9.85;;;4.22;;
21833;SDS011;11079;51.092;3.458;2022-08-19T08:34:18;8.23;;;4.35;;
21833;SDS011;11079;51.092;3.458;2022-08-19T08:36:45;9.93;;;4.82;;
21833;SDS011;11079;51.092;3.458;2022-08-19T08:39:16;7.28;;;4.00;;
21833;SDS011;11079;51.092;3.458;2022-08-19T08:44:18;6.60;;;4.53;;
21833;SDS011;11079;51.092;3.458;2022-08-19T08:46:49;5.85;;;4.10;;
21833;SDS011;11079;51.092;3.458;2022-08-19T08:49:36;6.90;;;4.07;;
21833;SDS011;11079;51.092;3.458;2022-08-19T08:54:41;6.25;;;4.40;;
21833;SDS011;11079;51.092;3.458;2022-08-19T08:57:12;6.78;;;4.10;;
21833;SDS011;11079;51.092;3.458;2022-08-19T08:59:40;5.38;;;3.85;;
21833;SDS011;11079;51.092;3.458;2022-08-19T09:02:08;11.65;;;4.68;;
21833;SDS011;11079;51.092;3.458;2022-08-19T09:04:35;6.28;;;4.20;;
21833;SDS011;11079;51.092;3.458;2022-08-19T09:09:50;8.30;;;5.30;;
21833;SDS011;11079;51.092;3.458;2022-08-19T09:15:15;6.70;;;5.18;;
21833;SDS011;11079;51.092;3.458;2022-08-19T09:17:48;8.45;;;4.30;;
21833;SDS011;11079;51.092;3.458;2022-08-19T09:20:21;5.95;;;4.65;;
21833;SDS011;11079;51.092;3.458;2022-08-19T09:22:48;4.40;;;3.47;;
21833;SDS011;11079;51.092;3.458;2022-08-19T09:25:15;7.10;;;3.00;;
21833;SDS011;11079;51.092;3.458;2022-08-19T09:27:43;5.00;;;2.78;;
21833;SDS011;11079;51.092;3.458;2022-08-19T09:30:16;3.78;;;2.80;;
21833;SDS011;11079;51.092;3.458;2022-08-19T09:32:47;6.43;;;2.70;;
21833;SDS011;11079;51.092;3.458;2022-08-19T09:35:13;4.97;;;2.70;;
21833;SDS011;11079;51.092;3.458;2022-08-19T09:37:40;6.25;;;3.13;;
21833;SDS011;11079;51.092;3.458;2022-08-19T09:40:07;4.45;;;2.15;;
21833;SDS011;11079;51.092;3.458;2022-08-19T09:42:36;6.85;;;2.75;;
21833;SDS011;11079;51.092;3.458;2022-08-19T09:45:03;3.30;;;2.40;;
21833;SDS011;11079;51.092;3.458;2022-08-19T09:47:37;6.65;;;2.40;;
21833;SDS011;11079;51.092;3.458;2022-08-19T09:50:11;5.70;;;3.13;;
21833;SDS011;11079;51.092;3.458;2022-08-19T09:52:51;6.65;;;3.05;;
21833;SDS011;11079;51.092;3.458;2022-08-19T09:55:18;5.20;;;2.88;;
21833;SDS011;11079;51.092;3.458;2022-08-19T09:57:44;4.45;;;2.58;;
21833;SDS011;11079;51.092;3.458;2022-08-19T10:00:12;3.22;;;1.98;;
21833;SDS011;11079;51.092;3.458;2022-08-19T10:02:38;2.72;;;2.15;;
21833;SDS011;11079;51.092;3.458;2022-08-19T10:05:04;3.35;;;1.83;;
21833;SDS011;11079;51.092;3.458;2022-08-19T10:07:50;4.68;;;1.70;;
21833;SDS011;11079;51.092;3.458;2022-08-19T10:10:16;2.78;;;1.90;;
21833;SDS011;11079;51.092;3.458;2022-08-19T10:12:43;3.13;;;1.70;;
21833;SDS011;11079;51.092;3.458;2022-08-19T10:15:12;3.78;;;1.38;;
21833;SDS011;11079;51.092;3.458;2022-08-19T10:17:38;3.63;;;1.70;;
21833;SDS011;11079;51.092;3.458;2022-08-19T10:20:03;4.75;;;1.67;;
21833;SDS011;11079;51.092;3.458;2022-08-19T10:22:30;3.20;;;1.80;;
21833;SDS011;11079;51.092;3.458;2022-08-19T10:24:55;1.80;;;1.52;;
21833;SDS011;11079;51.092;3.458;2022-08-19T10:27:21;3.72;;;1.40;;
21833;SDS011;11079;51.092;3.458;2022-08-19T10:29:47;4.32;;;1.65;;
21833;SDS011;11079;51.092;3.458;2022-08-19T10:32:13;2.15;;;1.40;;
21833;SDS011;11079;51.092;3.458;2022-08-19T10:34:38;4.43;;;1.60;;
21833;SDS011;11079;51.092;3.458;2022-08-19T10:37:05;3.30;;;1.55;;
21833;SDS011;11079;51.092;3.458;2022-08-19T10:39:31;3.47;;;1.50;;
21833;SDS011;11079;51.092;3.458;2022-08-19T10:41:58;3.63;;;1.45;;
21833;SDS011;11079;51.092;3.458;2022-08-19T10:44:28;2.42;;;1.48;;
21833;SDS011;11079;51.092;3.458;2022-08-19T10:46:55;2.60;;;1.25;;
21833;SDS011;11079;51.092;3.458;2022-08-19T10:49:20;1.70;;;1.20;;
21833;SDS011;11079;51.092;3.458;2022-08-19T10:51:47;2.45;;;1.20;;
21833;SDS011;11079;51.092;3.458;2022-08-19T10:54:32;1.92;;;1.42;;
21833;SDS011;11079;51.092;3.458;2022-08-19T10:57:16;3.08;;;1.33;;
21833;SDS011;11079;51.092;3.458;2022-08-19T10:59:42;6.13;;;1.60;;
21833;SDS011;11079;51.092;3.458;2022-08-19T11:02:09;2.65;;;1.20;;
21833;SDS011;11079;51.092;3.458;2022-08-19T11:04:37;3.33;;;1.60;;
21833;SDS011;11079;51.092;3.458;2022-08-19T11:07:06;2.45;;;1.30;;
21833;SDS011;11079;51.092;3.458;2022-08-19T11:09:40;3.70;;;1.50;;
21833;SDS011;11079;51.092;3.458;2022-08-19T11:12:07;1.42;;;1.27;;
21833;SDS011;11079;51.092;3.458;2022-08-19T11:14:34;1.27;;;0.80;;
21833;SDS011;11079;51.092;3.458;2022-08-19T11:17:01;3.63;;;1.02;;
21833;SDS011;11079;51.092;3.458;2022-08-19T11:19:29;2.97;;;0.90;;
21833;SDS011;11079;51.092;3.458;2022-08-19T11:21:55;4.20;;;1.30;;
21833;SDS011;11079;51.092;3.458;2022-08-19T11:24:21;2.35;;;1.08;;
21833;SDS011;11079;51.092;3.458;2022-08-19T11:26:51;2.05;;;1.30;;
21833;SDS011;11079;51.092;3.458;2022-08-19T11:29:19;2.45;;;1.17;;
21833;SDS011;11079;51.092;3.458;2022-08-19T11:31:47;2.35;;;1.30;;
21833;SDS011;11079;51.092;3.458;2022-08-19T11:34:16;2.55;;;1.35;;
21833;SDS011;11079;51.092;3.458;2022-08-19T11:36:44;1.92;;;1.23;;
21833;SDS011;11079;51.092;3.458;2022-08-19T11:39:13;4.13;;;1.30;;
21833;SDS011;11079;51.092;3.458;2022-08-19T11:41:41;4.72;;;1.10;;
21833;SDS011;11079;51.092;3.458;2022-08-19T11:44:07;2.15;;;0.90;;
21833;SDS011;11079;51.092;3.458;2022-08-19T11:46:34;2.60;;;0.90;;
21833;SDS011;11079;51.092;3.458;2022-08-19T11:49:03;3.10;;;0.70;;
21833;SDS011;11079;51.092;3.458;2022-08-19T11:51:30;2.45;;;0.70;;
21833;SDS011;11079;51.092;3.458;2022-08-19T11:53:57;3.75;;;1.00;;
21833;SDS011;11079;51.092;3.458;2022-08-19T11:56:24;1.83;;;1.33;;
21833;SDS011;11079;51.092;3.458;2022-08-19T11:58:51;1.40;;;0.77;;
21833;SDS011;11079;51.092;3.458;2022-08-19T12:01:19;1.58;;;0.90;;
21833;SDS011;11079;51.092;3.458;2022-08-19T12:03:47;2.45;;;1.00;;
21833;SDS011;11079;51.092;3.458;2022-08-19T12:06:16;2.85;;;0.85;;
21833;SDS011;11079;51.092;3.458;2022-08-19T12:08:44;1.23;;;0.50;;
21833;SDS011;11079;51.092;3.458;2022-08-19T12:11:11;3.85;;;0.77;;
21833;SDS011;11079;51.092;3.458;2022-08-19T12:13:38;4.40;;;0.88;;
21833;SDS011;11079;51.092;3.458;2022-08-19T12:16:09;4.03;;;1.02;;
21833;SDS011;11079;51.092;3.458;2022-08-19T12:18:37;1.20;;;0.95;;
21833;SDS011;11079;51.092;3.458;2022-08-19T12:21:03;2.15;;;1.05;;
21833;SDS011;11079;51.092;3.458;2022-08-19T12:23:29;1.67;;;1.20;;
21833;SDS011;11079;51.092;3.458;2022-08-19T12:25:55;2.55;;;1.30;;
21833;SDS011;11079;51.092;3.458;2022-08-19T12:28:22;2.35;;;0.98;;
21833;SDS011;11079;51.092;3.458;2022-08-19T12:30:49;3.33;;;1.52;;
21833;SDS011;11079;51.092;3.458;2022-08-19T12:33:16;2.05;;;1.15;;
21833;SDS011;11079;51.092;3.458;2022-08-19T12:35:49;22.98;;;2.78;;
21833;SDS011;11079;51.092;3.458;2022-08-19T12:38:15;21.70;;;2.55;;
21833;SDS011;11079;51.092;3.458;2022-08-19T12:40:41;12.98;;;2.38;;
21833;SDS011;11079;51.092;3.458;2022-08-19T12:43:10;4.63;;;2.28;;
21833;SDS011;11079;51.092;3.458;2022-08-19T12:45:36;8.32;;;2.67;;
21833;SDS011;11079;51.092;3.458;2022-08-19T12:48:02;9.38;;;2.88;;
21833;SDS011;11079;51.092;3.458;2022-08-19T12:50:29;7.72;;;2.20;;
21833;SDS011;11079;51.092;3.458;2022-08-19T12:52:55;4.43;;;2.30;;
21833;SDS011;11079;51.092;3.458;2022-08-19T12:55:23;6.45;;;2.70;;
21833;SDS011;11079;51.092;3.458;2022-08-19T12:57:49;5.50;;;2.45;;
21833;SDS011;11079;51.092;3.458;2022-08-19T13:00:16;5.38;;;2.78;;
21833;SDS011;11079;51.092;3.458;2022-08-19T13:02:46;4.65;;;2.55;;
21833;SDS011;11079;51.092;3.458;2022-08-19T13:05:16;4.18;;;2.13;;
21833;SDS011;11079;51.092;3.458;2022-08-19T13:07:46;3.42;;;2.00;;
21833;SDS011;11079;51.092;3.458;2022-08-19T13:10:13;6.55;;;2.45;;
21833;SDS011;11079;51.092;3.458;2022-08-19T13:12:41;4.28;;;1.80;;
21833;SDS011;11079;51.092;3.458;2022-08-19T13:15:08;3.17;;;1.92;;
21833;SDS011;11079;51.092;3.458;2022-08-19T13:17:38;2.92;;;2.47;;
21833;SDS011;11079;51.092;3.458;2022-08-19T13:20:09;5.57;;;2.67;;
21833;SDS011;11079;51.092;3.458;2022-08-19T13:22:37;3.67;;;2.25;;
21833;SDS011;11079;51.092;3.458;2022-08-19T13:25:03;4.80;;;2.53;;
21833;SDS011;11079;51.092;3.458;2022-08-19T13:27:30;4.75;;;2.40;;
21833;SDS011;11079;51.092;3.458;2022-08-19T13:29:56;4.72;;;2.60;;
21833;SDS011;11079;51.092;3.458;2022-08-19T13:32:40;2.90;;;2.38;;
21833;SDS011;11079;51.092;3.458;2022-08-19T13:35:24;4.00;;;2.45;;
21833;SDS011;11079;51.092;3.458;2022-08-19T13:37:51;5.55;;;2.95;;
21833;SDS011;11079;51.092;3.458;2022-08-19T13:40:18;6.07;;;2.90;;
21833;SDS011;11079;51.092;3.458;2022-08-19T13:42:48;8.10;;;3.88;;
21833;SDS011;11079;51.092;3.458;2022-08-19T13:45:19;5.20;;;3.38;;
21833;SDS011;11079;51.092;3.458;2022-08-19T13:47:47;5.05;;;4.53;;
21833;SDS011;11079;51.092;3.458;2022-08-19T13:50:21;6.90;;;4.80;;
21833;SDS011;11079;51.092;3.458;2022-08-19T13:52:50;7.20;;;4.80;;
21833;SDS011;11079;51.092;3.458;2022-08-19T13:55:17;4.78;;;4.30;;
21833;SDS011;11079;51.092;3.458;2022-08-19T13:57:43;5.50;;;4.55;;
21833;SDS011;11079;51.092;3.458;2022-08-19T14:00:10;7.18;;;6.18;;
21833;SDS011;11079;51.092;3.458;2022-08-19T14:02:43;6.65;;;5.90;;
21833;SDS011;11079;51.092;3.458;2022-08-19T14:05:13;7.00;;;6.20;;
21833;SDS011;11079;51.092;3.458;2022-08-19T14:07:40;7.35;;;6.05;;
21833;SDS011;11079;51.092;3.458;2022-08-19T14:10:07;6.70;;;6.05;;
21833;SDS011;11079;51.092;3.458;2022-08-19T14:12:35;8.13;;;5.53;;
21833;SDS011;11079;51.092;3.458;2022-08-19T14:15:02;7.90;;;4.80;;
21833;SDS011;11079;51.092;3.458;2022-08-19T14:17:28;11.02;;;5.40;;
21833;SDS011;11079;51.092;3.458;2022-08-19T14:19:58;6.75;;;4.05;;
21833;SDS011;11079;51.092;3.458;2022-08-19T14:22:32;6.88;;;4.28;;
21833;SDS011;11079;51.092;3.458;2022-08-19T14:24:58;7.68;;;4.47;;
21833;SDS011;11079;51.092;3.458;2022-08-19T14:27:24;5.43;;;4.70;;
21833;SDS011;11079;51.092;3.458;2022-08-19T14:29:50;7.22;;;4.05;;
21833;SDS011;11079;51.092;3.458;2022-08-19T14:32:16;5.72;;;4.53;;
21833;SDS011;11079;51.092;3.458;2022-08-19T14:34:42;6.25;;;4.18;;
21833;SDS011;11079;51.092;3.458;2022-08-19T14:37:11;7.45;;;4.88;;
21833;SDS011;11079;51.092;3.458;2022-08-19T14:39:39;8.15;;;4.63;;
21833;SDS011;11079;51.092;3.458;2022-08-19T14:42:09;6.75;;;4.13;;
21833;SDS011;11079;51.092;3.458;2022-08-19T14:44:35;8.32;;;4.68;;
21833;SDS011;11079;51.092;3.458;2022-08-19T14:47:01;8.85;;;4.60;;
21833;SDS011;11079;51.092;3.458;2022-08-19T14:49:27;7.80;;;3.92;;